sensor_id;sensor_type;location;lat;lon;timestamp;temperature;humidity
65231;DHT22;51813;40.666;16.602;2023-01-15T00:01:02;14.20;58.20
65231;DHT22;51813;40.666;16.602;2023-01-15T00:03:28;14.20;58.20
65231;DHT22;51813;40.666;16.602;2023-01-15T00:05:54;14.10;58.20
65231;DHT22;51813;40.666;16.602;2023-01-15T00:08:20;14.20;58.20
65231;DHT22;51813;40.666;16.602;2023-01-15T00:10:46;14.20;58.20
65231;DHT22;51813;40.666;16.602;2023-01-15T00:13:12;14.10;58.20
65231;DHT22;51813;40.666;16.602;2023-01-15T00:15:37;14.20;58.20
65231;DHT22;51813;40.666;16.602;2023-01-15T00:18:03;14.20;58.20
65231;DHT22;51813;40.666;16.602;2023-01-15T00:20:29;14.10;58.10
65231;DHT22;51813;40.666;16.602;2023-01-15T00:22:55;14.10;58.20
65231;DHT22;51813;40.666;16.602;2023-01-15T00:25:20;14.20;58.20
65231;DHT22;51813;40.666;16.602;2023-01-15T00:28:05;14.20;58.20
65231;DHT22;51813;40.666;16.602;2023-01-15T00:30:30;14.20;58.20
65231;DHT22;51813;40.666;16.602;2023-01-15T00:32:57;14.10;58.10
65231;DHT22;51813;40.666;16.602;2023-01-15T00:35:23;14.20;58.10
65231;DHT22;51813;40.666;16.602;2023-01-15T00:37:49;14.20;58.00
65231;DHT22;51813;40.666;16.602;2023-01-15T00:40:17;14.20;58.10
65231;DHT22;51813;40.666;16.602;2023-01-15T00:42:43;14.20;58.00
65231;DHT22;51813;40.666;16.602;2023-01-15T00:45:10;14.10;58.10
65231;DHT22;51813;40.666;16.602;2023-01-15T00:47:42;14.20;58.00
65231;DHT22;51813;40.666;16.602;2023-01-15T00:50:11;14.10;58.10
65231;DHT22;51813;40.666;16.602;2023-01-15T00:52:37;14.10;58.10
65231;DHT22;51813;40.666;16.602;2023-01-15T00:55:04;14.10;58.20
65231;DHT22;51813;40.666;16.602;2023-01-15T00:57:31;14.10;58.10
65231;DHT22;51813;40.666;16.602;2023-01-15T00:59:56;14.10;58.10
65231;DHT22;51813;40.666;16.602;2023-01-15T01:02:22;14.10;58.10
65231;DHT22;51813;40.666;16.602;2023-01-15T01:04:48;14.20;58.20
65231;DHT22;51813;40.666;16.602;2023-01-15T01:07:14;14.10;58.00
65231;DHT22;51813;40.666;16.602;2023-01-15T01:09:40;14.10;57.90
65231;DHT22;51813;40.666;16.602;2023-01-15T01:12:06;14.10;58.00
65231;DHT22;51813;40.666;16.602;2023-01-15T01:14:31;14.10;58.00
65231;DHT22;51813;40.666;16.602;2023-01-15T01:16:57;14.10;58.00
65231;DHT22;51813;40.666;16.602;2023-01-15T01:19:25;14.10;58.00
65231;DHT22;51813;40.666;16.602;2023-01-15T01:21:51;14.20;58.10
65231;DHT22;51813;40.666;16.602;2023-01-15T01:24:20;14.10;58.20
65231;DHT22;51813;40.666;16.602;2023-01-15T01:26:47;14.10;58.10
65231;DHT22;51813;40.666;16.602;2023-01-15T01:29:18;14.20;58.20
65231;DHT22;51813;40.666;16.602;2023-01-15T01:31:44;14.10;58.20
65231;DHT22;51813;40.666;16.602;2023-01-15T01:34:11;14.10;58.20
65231;DHT22;51813;40.666;16.602;2023-01-15T01:36:39;14.10;58.20
65231;DHT22;51813;40.666;16.602;2023-01-15T01:39:06;14.10;58.20
65231;DHT22;51813;40.666;16.602;2023-01-15T01:41:32;14.10;58.20
65231;DHT22;51813;40.666;16.602;2023-01-15T01:44:04;14.10;58.20
65231;DHT22;51813;40.666;16.602;2023-01-15T01:46:33;14.10;58.20
65231;DHT22;51813;40.666;16.602;2023-01-15T01:49:07;14.10;58.20
65231;DHT22;51813;40.666;16.602;2023-01-15T01:51:43;14.10;58.20
65231;DHT22;51813;40.666;16.602;2023-01-15T01:54:12;14.10;58.20
65231;DHT22;51813;40.666;16.602;2023-01-15T01:56:41;14.10;58.20
65231;DHT22;51813;40.666;16.602;2023-01-15T01:59:08;14.10;58.20
65231;DHT22;51813;40.666;16.602;2023-01-15T02:01:34;14.10;58.20
65231;DHT22;51813;40.666;16.602;2023-01-15T02:04:00;14.10;58.20
65231;DHT22;51813;40.666;16.602;2023-01-15T02:06:27;14.10;58.40
65231;DHT22;51813;40.666;16.602;2023-01-15T02:08:53;14.10;58.20
65231;DHT22;51813;40.666;16.602;2023-01-15T02:11:21;14.10;58.20
65231;DHT22;51813;40.666;16.602;2023-01-15T02:14:40;14.10;58.20
65231;DHT22;51813;40.666;16.602;2023-01-15T02:17:15;14.10;58.20
65231;DHT22;51813;40.666;16.602;2023-01-15T02:27:54;14.10;58.20
65231;DHT22;51813;40.666;16.602;2023-01-15T02:30:29;14.10;58.20
65231;DHT22;51813;40.666;16.602;2023-01-15T02:38:05;14.10;58.40
65231;DHT22;51813;40.666;16.602;2023-01-15T02:40:33;14.10;58.20
65231;DHT22;51813;40.666;16.602;2023-01-15T02:42:59;14.10;58.20
65231;DHT22;51813;40.666;16.602;2023-01-15T02:45:30;14.10;58.20
65231;DHT22;51813;40.666;16.602;2023-01-15T02:48:02;14.10;58.30
65231;DHT22;51813;40.666;16.602;2023-01-15T02:50:36;14.10;58.30
65231;DHT22;51813;40.666;16.602;2023-01-15T02:53:08;14.10;58.40
65231;DHT22;51813;40.666;16.602;2023-01-15T02:55:40;14.10;58.30
65231;DHT22;51813;40.666;16.602;2023-01-15T02:58:11;14.10;58.30
65231;DHT22;51813;40.666;16.602;2023-01-15T03:00:40;14.10;58.30
65231;DHT22;51813;40.666;16.602;2023-01-15T03:03:17;14.10;58.30
65231;DHT22;51813;40.666;16.602;2023-01-15T03:08:39;14.10;58.20
65231;DHT22;51813;40.666;16.602;2023-01-15T03:11:11;14.10;58.30
65231;DHT22;51813;40.666;16.602;2023-01-15T03:13:47;14.10;58.20
65231;DHT22;51813;40.666;16.602;2023-01-15T03:16:35;14.10;58.20
65231;DHT22;51813;40.666;16.602;2023-01-15T03:19:25;14.10;58.20
65231;DHT22;51813;40.666;16.602;2023-01-15T03:24:54;14.00;58.10
65231;DHT22;51813;40.666;16.602;2023-01-15T03:27:21;14.10;58.20
65231;DHT22;51813;40.666;16.602;2023-01-15T03:29:53;14.10;58.20
65231;DHT22;51813;40.666;16.602;2023-01-15T03:32:21;14.10;58.10
65231;DHT22;51813;40.666;16.602;2023-01-15T03:34:50;14.10;58.20
65231;DHT22;51813;40.666;16.602;2023-01-15T03:37:17;14.00;58.10
65231;DHT22;51813;40.666;16.602;2023-01-15T03:39:43;14.10;58.20
65231;DHT22;51813;40.666;16.602;2023-01-15T03:53:11;14.10;58.10
65231;DHT22;51813;40.666;16.602;2023-01-15T03:56:00;14.10;58.20
65231;DHT22;51813;40.666;16.602;2023-01-15T04:01:02;14.10;57.80
65231;DHT22;51813;40.666;16.602;2023-01-15T04:03:29;14.10;57.90
65231;DHT22;51813;40.666;16.602;2023-01-15T04:05:59;14.10;57.80
65231;DHT22;51813;40.666;16.602;2023-01-15T04:08:27;14.00;57.80
65231;DHT22;51813;40.666;16.602;2023-01-15T04:10:58;14.10;57.80
65231;DHT22;51813;40.666;16.602;2023-01-15T04:13:24;14.00;57.70
65231;DHT22;51813;40.666;16.602;2023-01-15T04:15:51;14.00;57.70
65231;DHT22;51813;40.666;16.602;2023-01-15T04:18:17;14.00;57.70
65231;DHT22;51813;40.666;16.602;2023-01-15T04:20:44;14.00;57.70
65231;DHT22;51813;40.666;16.602;2023-01-15T04:23:10;14.10;57.80
65231;DHT22;51813;40.666;16.602;2023-01-15T04:25:36;14.10;57.70
65231;DHT22;51813;40.666;16.602;2023-01-15T04:28:01;14.00;57.60
65231;DHT22;51813;40.666;16.602;2023-01-15T04:30:27;14.00;57.60
65231;DHT22;51813;40.666;16.602;2023-01-15T04:32:53;14.00;57.60
65231;DHT22;51813;40.666;16.602;2023-01-15T04:35:18;14.00;57.50
65231;DHT22;51813;40.666;16.602;2023-01-15T04:37:45;14.00;57.60
65231;DHT22;51813;40.666;16.602;2023-01-15T04:40:11;14.00;57.50
65231;DHT22;51813;40.666;16.602;2023-01-15T04:42:59;14.00;57.50
65231;DHT22;51813;40.666;16.602;2023-01-15T04:45:44;14.10;58.10
65231;DHT22;51813;40.666;16.602;2023-01-15T04:48:11;14.10;57.40
65231;DHT22;51813;40.666;16.602;2023-01-15T04:50:39;14.00;57.50
65231;DHT22;51813;40.666;16.602;2023-01-15T04:53:05;14.00;57.30
65231;DHT22;51813;40.666;16.602;2023-01-15T04:55:31;14.00;57.30
65231;DHT22;51813;40.666;16.602;2023-01-15T04:57:57;14.00;57.30
65231;DHT22;51813;40.666;16.602;2023-01-15T05:00:22;14.00;57.30
65231;DHT22;51813;40.666;16.602;2023-01-15T05:02:48;14.00;57.40
65231;DHT22;51813;40.666;16.602;2023-01-15T05:05:14;14.00;57.30
65231;DHT22;51813;40.666;16.602;2023-01-15T05:07:40;14.00;57.20
65231;DHT22;51813;40.666;16.602;2023-01-15T05:10:06;14.00;57.10
65231;DHT22;51813;40.666;16.602;2023-01-15T05:12:32;14.00;57.10
65231;DHT22;51813;40.666;16.602;2023-01-15T05:14:57;14.00;57.00
65231;DHT22;51813;40.666;16.602;2023-01-15T05:17:23;14.00;57.10
65231;DHT22;51813;40.666;16.602;2023-01-15T05:19:49;14.00;57.20
65231;DHT22;51813;40.666;16.602;2023-01-15T05:22:14;14.00;57.20
65231;DHT22;51813;40.666;16.602;2023-01-15T05:24:40;14.00;57.10
65231;DHT22;51813;40.666;16.602;2023-01-15T05:27:05;14.00;57.10
65231;DHT22;51813;40.666;16.602;2023-01-15T05:29:31;14.00;57.00
65231;DHT22;51813;40.666;16.602;2023-01-15T05:31:57;14.00;57.00
65231;DHT22;51813;40.666;16.602;2023-01-15T05:34:23;14.00;56.90
65231;DHT22;51813;40.666;16.602;2023-01-15T05:36:48;14.00;57.10
65231;DHT22;51813;40.666;16.602;2023-01-15T05:39:14;14.00;56.90
65231;DHT22;51813;40.666;16.602;2023-01-15T05:41:40;14.00;57.00
65231;DHT22;51813;40.666;16.602;2023-01-15T05:44:17;14.00;56.90
65231;DHT22;51813;40.666;16.602;2023-01-15T05:46:44;14.00;56.90
65231;DHT22;51813;40.666;16.602;2023-01-15T05:49:12;14.00;56.90
65231;DHT22;51813;40.666;16.602;2023-01-15T05:51:39;14.00;56.90
65231;DHT22;51813;40.666;16.602;2023-01-15T05:54:08;14.00;56.90
65231;DHT22;51813;40.666;16.602;2023-01-15T05:56:35;14.00;56.70
65231;DHT22;51813;40.666;16.602;2023-01-15T05:59:01;13.90;56.80
65231;DHT22;51813;40.666;16.602;2023-01-15T06:01:27;14.00;56.70
65231;DHT22;51813;40.666;16.602;2023-01-15T06:03:53;13.90;56.70
65231;DHT22;51813;40.666;16.602;2023-01-15T06:06:20;13.90;56.80
65231;DHT22;51813;40.666;16.602;2023-01-15T06:08:46;13.90;56.70
65231;DHT22;51813;40.666;16.602;2023-01-15T06:11:11;14.00;56.70
65231;DHT22;51813;40.666;16.602;2023-01-15T06:13:38;13.90;56.70
65231;DHT22;51813;40.666;16.602;2023-01-15T06:16:05;13.90;56.70
65231;DHT22;51813;40.666;16.602;2023-01-15T06:18:31;13.90;56.60
65231;DHT22;51813;40.666;16.602;2023-01-15T06:21:05;13.90;56.50
65231;DHT22;51813;40.666;16.602;2023-01-15T06:23:31;13.90;56.60
65231;DHT22;51813;40.666;16.602;2023-01-15T06:26:11;14.00;56.60
65231;DHT22;51813;40.666;16.602;2023-01-15T06:28:37;14.00;56.60
65231;DHT22;51813;40.666;16.602;2023-01-15T06:31:08;13.90;56.50
65231;DHT22;51813;40.666;16.602;2023-01-15T06:33:34;13.90;56.50
65231;DHT22;51813;40.666;16.602;2023-01-15T06:36:05;13.90;56.50
65231;DHT22;51813;40.666;16.602;2023-01-15T06:38:31;13.90;56.50
65231;DHT22;51813;40.666;16.602;2023-01-15T06:41:01;13.90;56.50
65231;DHT22;51813;40.666;16.602;2023-01-15T06:43:27;13.90;56.50
65231;DHT22;51813;40.666;16.602;2023-01-15T06:46:12;13.90;56.40
65231;DHT22;51813;40.666;16.602;2023-01-15T06:48:56;13.90;56.60
65231;DHT22;51813;40.666;16.602;2023-01-15T06:51:22;13.90;56.40
65231;DHT22;51813;40.666;16.602;2023-01-15T06:53:47;13.90;56.50
65231;DHT22;51813;40.666;16.602;2023-01-15T06:56:14;13.90;56.50
65231;DHT22;51813;40.666;16.602;2023-01-15T06:58:40;13.90;56.50
65231;DHT22;51813;40.666;16.602;2023-01-15T07:01:12;13.90;56.50
65231;DHT22;51813;40.666;16.602;2023-01-15T07:03:38;13.90;56.40
65231;DHT22;51813;40.666;16.602;2023-01-15T07:06:08;13.90;56.50
65231;DHT22;51813;40.666;16.602;2023-01-15T07:08:34;13.90;56.40
65231;DHT22;51813;40.666;16.602;2023-01-15T07:11:07;13.90;56.40
65231;DHT22;51813;40.666;16.602;2023-01-15T07:13:34;13.90;56.50
65231;DHT22;51813;40.666;16.602;2023-01-15T07:16:00;13.90;56.40
65231;DHT22;51813;40.666;16.602;2023-01-15T07:18:28;13.90;56.40
65231;DHT22;51813;40.666;16.602;2023-01-15T07:20:55;13.90;56.40
65231;DHT22;51813;40.666;16.602;2023-01-15T07:23:23;13.90;56.50
65231;DHT22;51813;40.666;16.602;2023-01-15T07:25:50;13.90;56.40
65231;DHT22;51813;40.666;16.602;2023-01-15T07:28:16;13.90;56.40
65231;DHT22;51813;40.666;16.602;2023-01-15T07:30:42;13.90;56.40
65231;DHT22;51813;40.666;16.602;2023-01-15T07:33:08;13.90;56.50
65231;DHT22;51813;40.666;16.602;2023-01-15T07:35:34;13.90;56.50
65231;DHT22;51813;40.666;16.602;2023-01-15T07:38:01;13.90;56.50
65231;DHT22;51813;40.666;16.602;2023-01-15T07:40:27;13.90;56.50
65231;DHT22;51813;40.666;16.602;2023-01-15T07:42:53;13.90;56.50
65231;DHT22;51813;40.666;16.602;2023-01-15T07:45:42;13.90;56.60
65231;DHT22;51813;40.666;16.602;2023-01-15T07:48:31;13.90;56.60
65231;DHT22;51813;40.666;16.602;2023-01-15T07:51:15;13.90;56.60
65231;DHT22;51813;40.666;16.602;2023-01-15T07:53:41;13.90;56.60
65231;DHT22;51813;40.666;16.602;2023-01-15T07:56:07;13.90;56.80
65231;DHT22;51813;40.666;16.602;2023-01-15T07:58:33;14.00;56.70
65231;DHT22;51813;40.666;16.602;2023-01-15T08:00:59;14.00;56.70
65231;DHT22;51813;40.666;16.602;2023-01-15T08:03:24;14.10;56.80
65231;DHT22;51813;40.666;16.602;2023-01-15T08:05:50;14.00;56.90
65231;DHT22;51813;40.666;16.602;2023-01-15T08:08:17;14.00;56.90
65231;DHT22;51813;40.666;16.602;2023-01-15T08:10:43;14.00;57.00
65231;DHT22;51813;40.666;16.602;2023-01-15T08:13:29;14.00;57.20
65231;DHT22;51813;40.666;16.602;2023-01-15T08:16:13;14.00;57.20
65231;DHT22;51813;40.666;16.602;2023-01-15T08:18:40;14.00;57.20
65231;DHT22;51813;40.666;16.602;2023-01-15T08:21:05;14.00;57.20
65231;DHT22;51813;40.666;16.602;2023-01-15T08:23:31;14.00;57.20
65231;DHT22;51813;40.666;16.602;2023-01-15T08:26:00;14.00;57.20
65231;DHT22;51813;40.666;16.602;2023-01-15T08:28:26;14.00;57.20
65231;DHT22;51813;40.666;16.602;2023-01-15T08:30:52;14.00;57.20
65231;DHT22;51813;40.666;16.602;2023-01-15T08:33:18;14.00;57.20
65231;DHT22;51813;40.666;16.602;2023-01-15T08:35:44;14.00;57.20
65231;DHT22;51813;40.666;16.602;2023-01-15T08:38:10;14.00;57.20
65231;DHT22;51813;40.666;16.602;2023-01-15T08:40:36;14.00;57.20
65231;DHT22;51813;40.666;16.602;2023-01-15T08:43:21;14.00;57.20
65231;DHT22;51813;40.666;16.602;2023-01-15T08:45:47;14.10;57.20
65231;DHT22;51813;40.666;16.602;2023-01-15T08:48:13;14.00;57.20
65231;DHT22;51813;40.666;16.602;2023-01-15T08:50:38;14.00;57.30
65231;DHT22;51813;40.666;16.602;2023-01-15T08:53:04;14.00;57.20
65231;DHT22;51813;40.666;16.602;2023-01-15T08:55:30;14.00;57.20
65231;DHT22;51813;40.666;16.602;2023-01-15T08:57:57;14.00;57.20
65231;DHT22;51813;40.666;16.602;2023-01-15T09:00:23;14.00;57.20
65231;DHT22;51813;40.666;16.602;2023-01-15T09:02:49;14.10;57.30
65231;DHT22;51813;40.666;16.602;2023-01-15T09:05:15;14.00;57.20
65231;DHT22;51813;40.666;16.602;2023-01-15T09:07:41;14.00;57.30
65231;DHT22;51813;40.666;16.602;2023-01-15T09:10:07;14.00;57.30
65231;DHT22;51813;40.666;16.602;2023-01-15T09:12:33;14.10;57.40
65231;DHT22;51813;40.666;16.602;2023-01-15T09:14:59;14.10;57.70
65231;DHT22;51813;40.666;16.602;2023-01-15T09:17:26;14.10;57.60
65231;DHT22;51813;40.666;16.602;2023-01-15T09:19:52;14.10;57.50
65231;DHT22;51813;40.666;16.602;2023-01-15T09:22:17;14.10;57.70
65231;DHT22;51813;40.666;16.602;2023-01-15T09:24:43;14.10;57.80
65231;DHT22;51813;40.666;16.602;2023-01-15T09:27:11;14.10;57.80
65231;DHT22;51813;40.666;16.602;2023-01-15T09:29:36;14.20;58.00
65231;DHT22;51813;40.666;16.602;2023-01-15T09:32:02;14.20;58.10
65231;DHT22;51813;40.666;16.602;2023-01-15T09:34:28;14.20;58.20
65231;DHT22;51813;40.666;16.602;2023-01-15T09:36:53;14.20;58.20
65231;DHT22;51813;40.666;16.602;2023-01-15T09:39:19;14.20;58.20
65231;DHT22;51813;40.666;16.602;2023-01-15T09:51:02;14.20;58.70
65231;DHT22;51813;40.666;16.602;2023-01-15T09:55:57;14.20;59.60
65231;DHT22;51813;40.666;16.602;2023-01-15T09:58:33;14.20;58.90
65231;DHT22;51813;40.666;16.602;2023-01-15T10:01:00;14.20;59.00
65231;DHT22;51813;40.666;16.602;2023-01-15T10:03:42;14.20;58.90
65231;DHT22;51813;40.666;16.602;2023-01-15T10:06:36;14.20;59.00
65231;DHT22;51813;40.666;16.602;2023-01-15T10:09:28;14.20;59.00
65231;DHT22;51813;40.666;16.602;2023-01-15T10:12:04;14.20;58.90
65231;DHT22;51813;40.666;16.602;2023-01-15T10:14:59;14.20;58.80
65231;DHT22;51813;40.666;16.602;2023-01-15T10:17:34;14.20;58.80
65231;DHT22;51813;40.666;16.602;2023-01-15T10:20:04;14.20;58.80
65231;DHT22;51813;40.666;16.602;2023-01-15T10:22:53;14.20;58.80
65231;DHT22;51813;40.666;16.602;2023-01-15T10:25:24;14.20;58.70
65231;DHT22;51813;40.666;16.602;2023-01-15T10:27:51;14.20;58.70
65231;DHT22;51813;40.666;16.602;2023-01-15T10:30:42;14.20;58.70
65231;DHT22;51813;40.666;16.602;2023-01-15T10:36:06;14.20;58.70
65231;DHT22;51813;40.666;16.602;2023-01-15T10:38:43;14.20;58.70
65231;DHT22;51813;40.666;16.602;2023-01-15T10:41:30;14.30;58.90
65231;DHT22;51813;40.666;16.602;2023-01-15T10:44:35;14.20;58.90
65231;DHT22;51813;40.666;16.602;2023-01-15T10:47:11;14.20;59.00
65231;DHT22;51813;40.666;16.602;2023-01-15T10:49:39;14.20;58.90
65231;DHT22;51813;40.666;16.602;2023-01-15T10:52:18;14.20;58.90
65231;DHT22;51813;40.666;16.602;2023-01-15T10:54:53;14.20;59.00
65231;DHT22;51813;40.666;16.602;2023-01-15T10:58:06;14.30;59.10
65231;DHT22;51813;40.666;16.602;2023-01-15T11:00:27;14.30;59.10
65231;DHT22;51813;40.666;16.602;2023-01-15T11:03:15;14.20;59.20
65231;DHT22;51813;40.666;16.602;2023-01-15T11:05:43;14.30;59.20
65231;DHT22;51813;40.666;16.602;2023-01-15T11:08:38;14.20;59.10
65231;DHT22;51813;40.666;16.602;2023-01-15T11:11:18;14.20;59.10
65231;DHT22;51813;40.666;16.602;2023-01-15T11:13:53;14.20;59.20
65231;DHT22;51813;40.666;16.602;2023-01-15T11:16:38;14.30;59.20
65231;DHT22;51813;40.666;16.602;2023-01-15T11:19:28;14.30;59.20
65231;DHT22;51813;40.666;16.602;2023-01-15T11:22:12;14.20;59.20
65231;DHT22;51813;40.666;16.602;2023-01-15T11:24:51;14.20;59.20
65231;DHT22;51813;40.666;16.602;2023-01-15T11:27:29;14.30;59.30
65231;DHT22;51813;40.666;16.602;2023-01-15T11:29:59;14.30;59.40
65231;DHT22;51813;40.666;16.602;2023-01-15T11:32:32;14.30;59.30
65231;DHT22;51813;40.666;16.602;2023-01-15T11:35:09;14.30;59.50
65231;DHT22;51813;40.666;16.602;2023-01-15T11:37:38;14.30;59.30
65231;DHT22;51813;40.666;16.602;2023-01-15T11:40:04;14.20;59.40
65231;DHT22;51813;40.666;16.602;2023-01-15T11:42:32;14.20;59.40
65231;DHT22;51813;40.666;16.602;2023-01-15T11:45:20;14.20;59.40
65231;DHT22;51813;40.666;16.602;2023-01-15T11:48:25;14.30;59.30
65231;DHT22;51813;40.666;16.602;2023-01-15T11:51:16;14.30;59.30
65231;DHT22;51813;40.666;16.602;2023-01-15T11:53:54;14.30;59.30
65231;DHT22;51813;40.666;16.602;2023-01-15T11:56:25;14.30;59.40
65231;DHT22;51813;40.666;16.602;2023-01-15T11:58:57;14.30;59.40
65231;DHT22;51813;40.666;16.602;2023-01-15T12:01:28;14.30;59.40
65231;DHT22;51813;40.666;16.602;2023-01-15T12:03:59;14.30;59.50
65231;DHT22;51813;40.666;16.602;2023-01-15T12:06:26;14.30;59.40
65231;DHT22;51813;40.666;16.602;2023-01-15T12:26:07;14.30;59.30
65231;DHT22;51813;40.666;16.602;2023-01-15T12:28:53;14.30;59.30
65231;DHT22;51813;40.666;16.602;2023-01-15T12:31:31;14.30;59.40
65231;DHT22;51813;40.666;16.602;2023-01-15T12:36:58;14.30;59.70
65231;DHT22;51813;40.666;16.602;2023-01-15T12:42:28;14.30;59.60
65231;DHT22;51813;40.666;16.602;2023-01-15T12:45:30;14.30;59.60
65231;DHT22;51813;40.666;16.602;2023-01-15T12:50:48;14.30;59.70
65231;DHT22;51813;40.666;16.602;2023-01-15T12:53:44;14.30;59.60
65231;DHT22;51813;40.666;16.602;2023-01-15T12:56:22;14.30;59.70
65231;DHT22;51813;40.666;16.602;2023-01-15T12:59:29;14.30;59.70
65231;DHT22;51813;40.666;16.602;2023-01-15T13:07:38;14.30;59.80
65231;DHT22;51813;40.666;16.602;2023-01-15T13:10:03;14.30;59.70
65231;DHT22;51813;40.666;16.602;2023-01-15T13:12:32;14.30;59.70
65231;DHT22;51813;40.666;16.602;2023-01-15T13:14:58;14.30;59.70
65231;DHT22;51813;40.666;16.602;2023-01-15T13:17:49;14.40;60.50
65231;DHT22;51813;40.666;16.602;2023-01-15T13:20:43;14.30;60.00
65231;DHT22;51813;40.666;16.602;2023-01-15T13:31:47;14.40;60.00
65231;DHT22;51813;40.666;16.602;2023-01-15T13:39:42;14.30;60.00
65231;DHT22;51813;40.666;16.602;2023-01-15T13:42:20;14.30;59.90
65231;DHT22;51813;40.666;16.602;2023-01-15T13:45:35;14.40;60.00
65231;DHT22;51813;40.666;16.602;2023-01-15T13:48:19;14.40;60.20
65231;DHT22;51813;40.666;16.602;2023-01-15T13:50:56;14.40;60.00
65231;DHT22;51813;40.666;16.602;2023-01-15T13:53:38;14.30;60.10
65231;DHT22;51813;40.666;16.602;2023-01-15T13:56:10;14.40;60.10
65231;DHT22;51813;40.666;16.602;2023-01-15T13:58:53;14.40;60.10
65231;DHT22;51813;40.666;16.602;2023-01-15T14:06:42;14.40;60.10
65231;DHT22;51813;40.666;16.602;2023-01-15T14:18:09;14.40;60.00
65231;DHT22;51813;40.666;16.602;2023-01-15T14:26:16;14.40;60.20
65231;DHT22;51813;40.666;16.602;2023-01-15T14:29:09;14.40;60.80
65231;DHT22;51813;40.666;16.602;2023-01-15T14:32:08;14.40;60.20
65231;DHT22;51813;40.666;16.602;2023-01-15T14:34:36;14.40;60.20
65231;DHT22;51813;40.666;16.602;2023-01-15T14:37:04;14.40;60.20
65231;DHT22;51813;40.666;16.602;2023-01-15T14:39:37;14.40;60.20
65231;DHT22;51813;40.666;16.602;2023-01-15T14:42:13;14.40;60.20
65231;DHT22;51813;40.666;16.602;2023-01-15T14:52:55;14.40;60.50
65231;DHT22;51813;40.666;16.602;2023-01-15T14:55:23;14.40;60.60
65231;DHT22;51813;40.666;16.602;2023-01-15T14:57:56;14.40;60.60
65231;DHT22;51813;40.666;16.602;2023-01-15T15:00:28;14.40;60.50
65231;DHT22;51813;40.666;16.602;2023-01-15T15:02:54;14.40;60.60
65231;DHT22;51813;40.666;16.602;2023-01-15T15:05:23;14.40;60.50
65231;DHT22;51813;40.666;16.602;2023-01-15T15:07:50;14.40;60.50
65231;DHT22;51813;40.666;16.602;2023-01-15T15:10:36;14.40;60.50
65231;DHT22;51813;40.666;16.602;2023-01-15T15:21:00;14.40;60.30
65231;DHT22;51813;40.666;16.602;2023-01-15T15:26:22;14.40;60.30
65231;DHT22;51813;40.666;16.602;2023-01-15T15:31:30;14.40;60.40
65231;DHT22;51813;40.666;16.602;2023-01-15T15:33:57;14.40;60.40
65231;DHT22;51813;40.666;16.602;2023-01-15T15:36:29;14.40;60.50
65231;DHT22;51813;40.666;16.602;2023-01-15T15:39:02;14.50;60.50
65231;DHT22;51813;40.666;16.602;2023-01-15T15:41:40;14.50;60.60
65231;DHT22;51813;40.666;16.602;2023-01-15T15:44:46;14.50;60.70
65231;DHT22;51813;40.666;16.602;2023-01-15T15:47:55;14.50;60.70
65231;DHT22;51813;40.666;16.602;2023-01-15T15:50:40;14.40;60.70
65231;DHT22;51813;40.666;16.602;2023-01-15T15:53:15;14.40;60.70
65231;DHT22;51813;40.666;16.602;2023-01-15T15:55:43;14.40;60.70
65231;DHT22;51813;40.666;16.602;2023-01-15T16:00:46;14.50;60.70
65231;DHT22;51813;40.666;16.602;2023-01-15T16:03:19;14.40;60.70
65231;DHT22;51813;40.666;16.602;2023-01-15T16:05:59;14.40;60.70
65231;DHT22;51813;40.666;16.602;2023-01-15T16:08:27;14.40;60.70
65231;DHT22;51813;40.666;16.602;2023-01-15T16:10:55;14.40;60.70
65231;DHT22;51813;40.666;16.602;2023-01-15T16:13:31;14.40;60.70
65231;DHT22;51813;40.666;16.602;2023-01-15T16:16:00;14.40;60.70
65231;DHT22;51813;40.666;16.602;2023-01-15T16:18:49;14.40;60.70
65231;DHT22;51813;40.666;16.602;2023-01-15T16:21:27;14.40;60.70
65231;DHT22;51813;40.666;16.602;2023-01-15T16:23:57;14.40;60.60
65231;DHT22;51813;40.666;16.602;2023-01-15T16:26:38;14.40;60.70
65231;DHT22;51813;40.666;16.602;2023-01-15T16:29:14;14.40;60.70
65231;DHT22;51813;40.666;16.602;2023-01-15T16:31:42;14.40;60.70
65231;DHT22;51813;40.666;16.602;2023-01-15T16:34:23;14.40;60.70
65231;DHT22;51813;40.666;16.602;2023-01-15T16:36:49;14.40;60.70
65231;DHT22;51813;40.666;16.602;2023-01-15T16:41:55;14.40;60.70
65231;DHT22;51813;40.666;16.602;2023-01-15T16:44:40;14.40;60.70
65231;DHT22;51813;40.666;16.602;2023-01-15T16:47:32;14.40;60.70
65231;DHT22;51813;40.666;16.602;2023-01-15T16:50:33;14.40;60.70
65231;DHT22;51813;40.666;16.602;2023-01-15T16:53:01;14.40;60.70
65231;DHT22;51813;40.666;16.602;2023-01-15T16:55:37;14.40;60.70
65231;DHT22;51813;40.666;16.602;2023-01-15T16:58:16;14.40;60.80
65231;DHT22;51813;40.666;16.602;2023-01-15T17:00:45;14.40;60.80
65231;DHT22;51813;40.666;16.602;2023-01-15T17:03:20;14.40;60.80
65231;DHT22;51813;40.666;16.602;2023-01-15T17:05:47;14.40;60.80
65231;DHT22;51813;40.666;16.602;2023-01-15T17:08:24;14.40;60.80
65231;DHT22;51813;40.666;16.602;2023-01-15T17:10:59;14.40;60.80
65231;DHT22;51813;40.666;16.602;2023-01-15T17:13:36;14.40;60.90
65231;DHT22;51813;40.666;16.602;2023-01-15T17:16:15;14.40;60.80
65231;DHT22;51813;40.666;16.602;2023-01-15T17:18:42;14.40;60.90
65231;DHT22;51813;40.666;16.602;2023-01-15T17:21:23;14.40;60.90
65231;DHT22;51813;40.666;16.602;2023-01-15T17:23:54;14.40;60.90
65231;DHT22;51813;40.666;16.602;2023-01-15T17:26:24;14.40;60.80
65231;DHT22;51813;40.666;16.602;2023-01-15T17:28:51;14.40;60.80
65231;DHT22;51813;40.666;16.602;2023-01-15T17:31:25;14.40;60.90
65231;DHT22;51813;40.666;16.602;2023-01-15T17:33:53;14.40;60.80
65231;DHT22;51813;40.666;16.602;2023-01-15T17:36:19;14.40;60.90
65231;DHT22;51813;40.666;16.602;2023-01-15T17:38:45;14.40;60.90
65231;DHT22;51813;40.666;16.602;2023-01-15T17:41:12;14.40;60.90
65231;DHT22;51813;40.666;16.602;2023-01-15T17:43:38;14.40;61.00
65231;DHT22;51813;40.666;16.602;2023-01-15T17:46:04;14.40;60.90
65231;DHT22;51813;40.666;16.602;2023-01-15T17:48:30;14.40;61.00
65231;DHT22;51813;40.666;16.602;2023-01-15T17:51:03;14.40;61.00
65231;DHT22;51813;40.666;16.602;2023-01-15T17:53:29;14.40;61.00
65231;DHT22;51813;40.666;16.602;2023-01-15T17:55:59;14.40;61.00
65231;DHT22;51813;40.666;16.602;2023-01-15T17:58:44;14.40;61.00
65231;DHT22;51813;40.666;16.602;2023-01-15T18:01:31;14.40;61.00
65231;DHT22;51813;40.666;16.602;2023-01-15T18:04:22;14.40;61.10